createdAt,value
2018-04-29T00:02:22.648Z,3.00
2018-04-29T00:04:51.747Z,3.40
2018-04-29T00:07:20.787Z,2.70
2018-04-29T00:09:49.044Z,2.47
2018-04-29T00:12:18.170Z,2.93
2018-04-29T00:14:46.450Z,3.07
2018-04-29T00:17:15.477Z,2.93
2018-04-29T00:19:44.505Z,3.00
2018-04-29T00:22:14.540Z,2.77
2018-04-29T00:24:43.397Z,3.23
2018-04-29T00:27:11.732Z,2.83
2018-04-29T00:29:40.002Z,3.33
2018-04-29T00:32:08.377Z,2.90
2018-04-29T00:34:36.639Z,3.27
2018-04-29T00:37:04.923Z,2.90
2018-04-29T00:39:33.175Z,3.00
2018-04-29T00:42:01.440Z,3.57
2018-04-29T00:44:29.716Z,3.23
2018-04-29T00:46:58.739Z,3.55
2018-04-29T00:49:26.996Z,3.53
2018-04-29T00:52:06.958Z,3.20
2018-04-29T00:54:36.047Z,3.53
2018-04-29T00:57:04.323Z,3.40
2018-04-29T00:59:32.682Z,3.80
2018-04-29T01:02:01.713Z,3.40
2018-04-29T01:04:30.068Z,3.20
2018-04-29T01:06:59.115Z,3.47
2018-04-29T01:09:27.490Z,3.70
2018-04-29T01:11:55.751Z,3.73
2018-04-29T01:14:24.986Z,3.37
2018-04-29T01:16:53.266Z,3.77
2018-04-29T01:19:22.378Z,3.57
2018-04-29T01:21:51.403Z,3.73
2018-04-29T01:24:19.681Z,3.33
2018-04-29T01:26:48.699Z,3.67
2018-04-29T01:29:17.080Z,3.50
2018-04-29T01:31:45.342Z,3.63
2018-04-29T01:34:13.588Z,4.30
2018-04-29T01:36:41.867Z,4.17
2018-04-29T01:39:10.169Z,4.03
2018-04-29T01:41:38.433Z,4.30
2018-04-29T01:44:06.823Z,3.87
2018-04-29T01:46:35.139Z,3.77
2018-04-29T01:49:03.496Z,3.97
2018-04-29T01:51:31.831Z,3.50
2018-04-29T01:54:00.094Z,3.67
2018-04-29T01:56:28.406Z,4.00
2018-04-29T01:58:56.747Z,4.13
2018-04-29T02:01:25.826Z,4.20
2018-04-29T02:03:54.117Z,4.00
2018-04-29T02:06:22.399Z,3.73
2018-04-29T02:08:50.706Z,3.83
2018-04-29T02:11:19.040Z,3.83
2018-04-29T02:13:48.068Z,4.10
2018-04-29T02:16:16.447Z,4.20
2018-04-29T02:18:44.704Z,3.67
2018-04-29T02:21:13.909Z,3.80
2018-04-29T02:23:43.671Z,3.70
2018-04-29T02:26:11.923Z,3.80
2018-04-29T02:28:41.051Z,3.70
2018-04-29T02:31:10.076Z,3.40
2018-04-29T02:33:38.367Z,4.00
2018-04-29T02:36:06.764Z,4.03
2018-04-29T02:38:35.014Z,3.70
2018-04-29T02:41:03.274Z,4.50
2018-04-29T02:43:31.715Z,5.20
2018-04-29T02:46:00.732Z,4.93
2018-04-29T02:48:29.792Z,5.37
2018-04-29T02:50:58.142Z,5.17
2018-04-29T02:53:26.430Z,5.80
2018-04-29T02:55:55.447Z,5.87
2018-04-29T02:58:23.836Z,5.78
2018-04-29T03:00:52.226Z,6.30
2018-04-29T03:03:20.482Z,5.93
2018-04-29T03:05:48.822Z,5.83
2018-04-29T03:08:17.079Z,5.87
2018-04-29T03:10:46.106Z,5.60
2018-04-29T03:13:14.430Z,5.68
2018-04-29T03:15:42.705Z,5.60
2018-04-29T03:18:11.080Z,5.57
2018-04-29T03:20:39.373Z,6.12
2018-04-29T03:23:07.664Z,5.68
2018-04-29T03:25:35.940Z,5.72
2018-04-29T03:28:04.227Z,6.18
2018-04-29T03:30:33.269Z,5.40
2018-04-29T03:33:01.642Z,5.47
2018-04-29T03:35:29.929Z,5.47
2018-04-29T03:37:58.208Z,5.80
2018-04-29T03:40:26.506Z,4.87
2018-04-29T03:42:55.609Z,5.30
2018-04-29T03:45:23.867Z,5.68
2018-04-29T03:47:52.145Z,5.47
2018-04-29T03:50:20.427Z,4.53
2018-04-29T03:52:48.711Z,5.27
2018-04-29T03:55:17.072Z,5.37
2018-04-29T03:58:03.869Z,5.43
2018-04-29T04:00:53.923Z,5.40
2018-04-29T04:03:39.847Z,4.80
2018-04-29T04:06:08.232Z,5.05
2018-04-29T04:08:36.587Z,5.63
2018-04-29T04:11:04.951Z,4.87
2018-04-29T04:13:33.266Z,5.27
2018-04-29T04:16:02.286Z,5.32
2018-04-29T04:18:30.568Z,5.20
2018-04-29T04:20:58.857Z,4.75
2018-04-29T04:23:27.971Z,4.70
2018-04-29T04:25:56.260Z,5.25
2018-04-29T04:28:24.588Z,5.07
2018-04-29T04:30:52.927Z,4.68
2018-04-29T04:33:22.054Z,4.70
2018-04-29T04:35:50.343Z,4.80
2018-04-29T04:38:18.621Z,4.60
2018-04-29T04:40:47.742Z,4.78
2018-04-29T04:43:16.559Z,4.93
2018-04-29T04:45:44.829Z,5.20
2018-04-29T04:48:13.100Z,4.50
2018-04-29T04:50:41.357Z,4.63
2018-04-29T04:53:09.706Z,4.70
2018-04-29T04:55:38.794Z,4.93
2018-04-29T04:58:07.968Z,4.60
2018-04-29T05:00:36.187Z,4.93
2018-04-29T05:03:05.246Z,4.70
2018-04-29T05:05:33.510Z,4.83
2018-04-29T05:08:01.805Z,4.77
2018-04-29T05:10:30.075Z,4.30
2018-04-29T05:12:59.213Z,4.53
2018-04-29T05:15:27.464Z,4.23
2018-04-29T05:17:56.507Z,4.60
2018-04-29T05:20:24.799Z,5.18
2018-04-29T05:22:53.186Z,4.80
2018-04-29T05:25:21.577Z,4.33
2018-04-29T05:27:49.837Z,4.40
2018-04-29T05:30:18.879Z,5.17
2018-04-29T05:32:47.167Z,5.17
2018-04-29T05:35:15.437Z,4.20
2018-04-29T05:37:44.477Z,4.73
2018-04-29T05:40:12.755Z,4.70
2018-04-29T05:42:41.044Z,3.97
2018-04-29T05:45:09.360Z,5.13
2018-04-29T05:47:37.636Z,4.67
2018-04-29T05:50:06.025Z,4.73
2018-04-29T05:52:34.305Z,5.00
2018-04-29T05:55:02.688Z,4.47
2018-04-29T05:57:31.710Z,4.80
2018-04-29T06:00:02.704Z,4.70
2018-04-29T06:02:30.971Z,4.93
2018-04-29T06:04:59.237Z,4.87
2018-04-29T06:07:28.275Z,5.20
2018-04-29T06:09:56.535Z,5.13
2018-04-29T06:12:25.552Z,4.50
2018-04-29T06:14:53.826Z,4.50
2018-04-29T06:17:22.843Z,4.47
2018-04-29T06:19:51.106Z,4.60
2018-04-29T06:22:19.514Z,5.00
2018-04-29T06:24:48.631Z,4.90
2018-04-29T06:27:17.732Z,4.43
2018-04-29T06:29:46.955Z,4.70
2018-04-29T06:32:15.978Z,4.80
2018-04-29T06:34:44.461Z,4.37
2018-04-29T06:37:12.855Z,4.47
2018-04-29T06:39:41.107Z,5.10
2018-04-29T06:42:09.433Z,5.10
2018-04-29T06:44:38.543Z,4.63
2018-04-29T06:47:06.858Z,4.70
2018-04-29T06:49:35.115Z,4.80
2018-04-29T06:52:03.391Z,4.93
2018-04-29T06:54:32.474Z,4.60
2018-04-29T06:57:01.488Z,5.07
2018-04-29T06:59:29.762Z,4.87
2018-04-29T07:01:58.112Z,4.70
2018-04-29T07:04:26.382Z,5.77
2018-04-29T07:06:55.512Z,5.20
2018-04-29T07:09:24.547Z,5.83
2018-04-29T07:11:52.807Z,7.20
2018-04-29T07:14:21.151Z,6.60
2018-04-29T07:16:50.927Z,6.20
2018-04-29T07:19:19.212Z,6.80
2018-04-29T07:21:47.485Z,6.67
2018-04-29T07:24:15.794Z,8.70
2018-04-29T07:26:44.902Z,6.27
2018-04-29T07:29:13.939Z,6.00
2018-04-29T07:31:42.295Z,6.57
2018-04-29T07:34:11.396Z,5.87
2018-04-29T07:36:39.809Z,6.47
2018-04-29T07:39:08.087Z,7.93
2018-04-29T07:41:36.362Z,7.47
2018-04-29T07:44:05.451Z,7.40
2018-04-29T07:46:33.739Z,8.03
2018-04-29T07:49:02.007Z,7.03
2018-04-29T07:51:30.284Z,6.10
2018-04-29T07:53:58.546Z,7.00
2018-04-29T07:56:27.563Z,6.53
2018-04-29T07:58:55.827Z,6.50
2018-04-29T08:01:24.843Z,7.07
2018-04-29T08:03:53.876Z,7.47
2018-04-29T08:06:22.166Z,7.23
2018-04-29T08:08:50.469Z,7.60
2018-04-29T08:11:19.557Z,6.73
2018-04-29T08:13:47.857Z,6.17
2018-04-29T08:16:16.129Z,6.77
2018-04-29T08:18:44.434Z,7.07
2018-04-29T08:21:12.704Z,7.37
2018-04-29T08:23:42.543Z,7.17
2018-04-29T08:26:10.841Z,6.57
2018-04-29T08:28:39.149Z,7.57
2018-04-29T08:31:07.520Z,7.40
2018-04-29T08:33:35.807Z,7.27
2018-04-29T08:36:04.843Z,7.53
2018-04-29T08:38:33.881Z,8.10
2018-04-29T08:41:03.652Z,7.97
2018-04-29T08:43:31.966Z,7.43
2018-04-29T08:46:00.247Z,8.90
2018-04-29T08:48:28.626Z,9.40
2018-04-29T08:50:56.939Z,8.60
2018-04-29T08:53:25.300Z,8.47
2018-04-29T08:55:54.357Z,9.23
2018-04-29T08:58:22.622Z,10.53
2018-04-29T09:00:50.892Z,15.77
2018-04-29T09:03:19.287Z,11.10
2018-04-29T09:05:47.656Z,20.87
2018-04-29T09:08:15.971Z,10.30
2018-04-29T09:10:44.262Z,10.23
2018-04-29T09:13:12.658Z,9.50
2018-04-29T09:15:40.949Z,9.97
2018-04-29T09:18:09.501Z,8.93
2018-04-29T09:20:38.041Z,9.33
2018-04-29T09:23:06.328Z,9.00
2018-04-29T09:25:34.728Z,8.90
2018-04-29T09:28:03.036Z,9.33
2018-04-29T09:30:31.440Z,8.57
2018-04-29T09:32:59.774Z,7.40
2018-04-29T09:35:28.809Z,7.00
2018-04-29T09:37:57.206Z,7.37
2018-04-29T09:40:25.454Z,7.93
2018-04-29T09:42:53.721Z,6.70
2018-04-29T09:45:21.977Z,6.97
2018-04-29T09:47:50.232Z,7.57
2018-04-29T09:50:19.270Z,6.47
2018-04-29T09:52:47.631Z,7.27
2018-04-29T09:55:16.684Z,7.07
2018-04-29T09:57:44.939Z,6.57
2018-04-29T10:00:14.059Z,7.00
2018-04-29T10:02:48.191Z,7.10
2018-04-29T10:05:16.465Z,5.70
2018-04-29T10:07:45.512Z,6.07
2018-04-29T10:10:13.800Z,6.47
2018-04-29T10:12:42.044Z,6.93
2018-04-29T10:15:11.175Z,4.97
2018-04-29T10:17:39.513Z,5.93
2018-04-29T10:20:07.762Z,5.17
2018-04-29T10:22:36.057Z,5.50
2018-04-29T10:25:04.330Z,4.80
2018-04-29T10:27:33.837Z,5.37
2018-04-29T10:30:02.857Z,5.23
2018-04-29T10:32:31.128Z,4.67
2018-04-29T10:35:00.260Z,5.27
2018-04-29T10:37:29.267Z,6.23
2018-04-29T10:39:57.582Z,9.97
2018-04-29T10:42:25.833Z,5.20
2018-04-29T10:44:54.138Z,3.50
2018-04-29T10:47:22.429Z,3.97
2018-04-29T10:49:51.542Z,5.97
2018-04-29T10:52:19.798Z,4.93
2018-04-29T10:54:49.580Z,4.03
2018-04-29T10:57:17.836Z,3.70
2018-04-29T10:59:46.111Z,3.50
2018-04-29T11:02:15.140Z,3.53
2018-04-29T11:04:43.420Z,3.40
2018-04-29T11:07:12.541Z,3.97
2018-04-29T11:09:41.640Z,3.87
2018-04-29T11:12:10.765Z,3.50
2018-04-29T11:14:39.136Z,3.58
2018-04-29T11:17:08.280Z,3.57
2018-04-29T11:19:36.545Z,3.90
2018-04-29T11:22:05.770Z,3.43
2018-04-29T11:24:33.967Z,3.63
2018-04-29T11:27:02.233Z,3.33
2018-04-29T11:29:31.243Z,2.87
2018-04-29T11:31:59.541Z,2.70
2018-04-29T11:34:28.635Z,2.40
2018-04-29T11:36:57.762Z,2.90
2018-04-29T11:39:26.961Z,3.17
2018-04-29T11:41:56.127Z,3.40
2018-04-29T11:44:24.410Z,2.97
2018-04-29T11:46:52.759Z,2.87
2018-04-29T11:49:21.770Z,2.77
2018-04-29T11:51:50.061Z,2.63
2018-04-29T11:54:19.079Z,2.90
2018-04-29T11:56:47.353Z,2.57
2018-04-29T11:59:16.448Z,2.60
2018-04-29T12:01:45.478Z,3.10
2018-04-29T12:04:13.785Z,3.23
2018-04-29T12:06:42.056Z,2.80
2018-04-29T12:09:11.091Z,2.60
2018-04-29T12:11:39.382Z,3.10
2018-04-29T12:14:07.716Z,2.97
2018-04-29T12:16:35.982Z,3.13
2018-04-29T12:19:04.233Z,2.73
2018-04-29T12:21:32.488Z,3.30
2018-04-29T12:24:01.607Z,3.60
2018-04-29T12:26:30.730Z,3.00
2018-04-29T12:28:59.731Z,5.13
2018-04-29T12:31:27.999Z,3.05
2018-04-29T12:33:57.023Z,3.17
2018-04-29T12:36:26.073Z,3.37
2018-04-29T12:38:54.361Z,3.03
2018-04-29T12:41:22.716Z,3.50
2018-04-29T12:43:51.840Z,3.43
2018-04-29T12:46:20.129Z,4.87
2018-04-29T12:48:49.156Z,3.40
2018-04-29T12:51:17.391Z,3.13
2018-04-29T12:53:45.723Z,3.15
2018-04-29T12:56:13.978Z,5.07
2018-04-29T12:58:42.230Z,4.03
2018-04-29T13:01:10.633Z,4.23
2018-04-29T13:03:38.921Z,2.97
2018-04-29T13:06:07.275Z,3.30
2018-04-29T13:08:35.658Z,3.33
2018-04-29T13:11:04.771Z,3.47
2018-04-29T13:13:33.793Z,3.33
2018-04-29T13:16:02.070Z,3.57
2018-04-29T13:18:31.278Z,3.10
2018-04-29T13:21:00.954Z,3.20
2018-04-29T13:23:29.252Z,3.37
2018-04-29T13:25:57.515Z,3.00
2018-04-29T13:28:25.798Z,3.17
2018-04-29T13:30:54.203Z,3.47
2018-04-29T13:33:22.457Z,4.07
2018-04-29T13:35:51.465Z,3.50
2018-04-29T13:38:20.498Z,26.13
2018-04-29T13:40:48.761Z,9.47
2018-04-29T13:43:17.012Z,3.10
2018-04-29T13:45:45.291Z,2.90
2018-04-29T13:48:13.663Z,2.97
2018-04-29T13:50:41.941Z,7.40
2018-04-29T13:53:11.061Z,4.13
2018-04-29T13:55:40.117Z,3.10
2018-04-29T13:58:08.396Z,3.07
2018-04-29T14:00:36.688Z,3.77
2018-04-29T14:03:04.959Z,2.97
2018-04-29T14:05:33.200Z,3.40
2018-04-29T14:08:02.250Z,3.40
2018-04-29T14:10:30.611Z,4.17
2018-04-29T14:12:58.880Z,4.07
2018-04-29T14:15:27.838Z,3.10
2018-04-29T14:17:56.121Z,2.80
2018-04-29T14:20:25.151Z,3.10
2018-04-29T14:22:53.507Z,2.93
2018-04-29T14:25:22.632Z,5.27
2018-04-29T14:27:50.871Z,4.13
2018-04-29T14:30:19.210Z,3.23
2018-04-29T14:32:48.257Z,3.00
2018-04-29T14:35:16.516Z,2.80
2018-04-29T14:37:44.787Z,3.53
2018-04-29T14:40:13.188Z,5.80
2018-04-29T14:42:42.327Z,3.30
2018-04-29T14:45:10.748Z,3.30
2018-04-29T14:47:40.612Z,3.03
2018-04-29T14:50:10.543Z,4.30
2018-04-29T14:52:38.859Z,4.23
2018-04-29T14:55:07.261Z,4.73
2018-04-29T14:57:35.727Z,3.67
2018-04-29T15:00:04.832Z,7.93
2018-04-29T15:02:33.859Z,5.43
2018-04-29T15:05:02.175Z,6.07
2018-04-29T15:07:30.546Z,3.70
2018-04-29T15:09:58.968Z,4.50
2018-04-29T15:12:27.264Z,4.40
2018-04-29T15:14:55.536Z,4.20
2018-04-29T15:17:23.878Z,3.33
2018-04-29T15:19:53.003Z,3.23
2018-04-29T15:22:22.113Z,3.20
2018-04-29T15:24:51.120Z,3.30
2018-04-29T15:27:20.159Z,3.70
2018-04-29T15:29:48.409Z,3.30
2018-04-29T15:32:17.547Z,3.60
2018-04-29T15:34:45.788Z,3.63
2018-04-29T15:37:14.067Z,3.57
2018-04-29T15:39:42.349Z,3.10
2018-04-29T15:42:10.738Z,5.07
2018-04-29T15:44:39.903Z,4.23
2018-04-29T15:47:08.298Z,3.73
2018-04-29T15:49:37.410Z,4.30
2018-04-29T15:52:05.677Z,4.63
2018-04-29T15:54:34.906Z,4.40
2018-04-29T15:57:03.899Z,3.67
2018-04-29T15:59:33.124Z,5.17
2018-04-29T16:02:02.242Z,4.43
2018-04-29T16:04:30.507Z,7.68
2018-04-29T16:06:59.558Z,4.60
2018-04-29T16:09:27.822Z,5.87
2018-04-29T16:11:56.067Z,5.10
2018-04-29T16:14:24.346Z,4.60
2018-04-29T16:16:53.885Z,4.00
2018-04-29T16:19:23.749Z,4.43
2018-04-29T16:21:52.020Z,4.20
2018-04-29T16:24:21.049Z,3.80
2018-04-29T16:26:49.299Z,3.70
2018-04-29T16:29:18.355Z,4.30
2018-04-29T16:31:47.448Z,4.10
2018-04-29T16:34:16.792Z,4.37
2018-04-29T16:36:45.075Z,4.40
2018-04-29T16:39:13.455Z,3.80
2018-04-29T16:41:42.695Z,4.80
2018-04-29T16:44:11.007Z,5.03
2018-04-29T16:46:40.011Z,4.50
2018-04-29T16:49:08.358Z,4.57
2018-04-29T16:51:36.752Z,4.37
2018-04-29T16:54:05.122Z,3.97
2018-04-29T16:56:34.264Z,4.70
2018-04-29T16:59:02.631Z,4.43
2018-04-29T17:01:33.466Z,4.50
2018-04-29T17:04:01.879Z,4.62
2018-04-29T17:06:30.991Z,3.90
2018-04-29T17:08:59.346Z,4.50
2018-04-29T17:11:27.732Z,4.73
2018-04-29T17:13:55.999Z,5.00
2018-04-29T17:16:24.451Z,5.03
2018-04-29T17:18:53.509Z,4.33
2018-04-29T17:21:21.955Z,4.83
2018-04-29T17:23:50.325Z,4.47
2018-04-29T17:26:20.835Z,4.33
2018-04-29T17:28:53.815Z,4.87
2018-04-29T17:31:23.012Z,4.77
2018-04-29T17:33:54.250Z,4.23
2018-04-29T17:36:23.308Z,6.00
2018-04-29T17:38:51.680Z,4.87
2018-04-29T17:41:20.079Z,5.73
2018-04-29T17:43:48.475Z,5.10
2018-04-29T17:46:16.967Z,5.67
2018-04-29T17:48:45.617Z,11.33
2018-04-29T17:51:13.987Z,7.50
2018-04-29T17:53:43.386Z,6.17
2018-04-29T17:56:11.869Z,4.43
2018-04-29T17:58:40.319Z,7.07
2018-04-29T18:01:08.677Z,5.60
2018-04-29T18:03:37.003Z,5.30
2018-04-29T18:06:05.425Z,6.63
2018-04-29T18:08:33.677Z,6.93
2018-04-29T18:11:01.945Z,7.53
2018-04-29T18:13:30.204Z,7.60
2018-04-29T18:15:58.484Z,6.27
2018-04-29T18:18:26.770Z,6.60
2018-04-29T18:20:55.883Z,5.50
2018-04-29T18:23:24.147Z,5.30
2018-04-29T18:25:53.284Z,4.83
2018-04-29T18:28:21.551Z,5.80
2018-04-29T18:30:50.580Z,5.60
2018-04-29T18:33:19.025Z,5.53
2018-04-29T18:35:47.268Z,5.33
2018-04-29T18:38:15.513Z,5.20
2018-04-29T18:40:43.783Z,4.80
2018-04-29T18:43:12.132Z,5.13
2018-04-29T18:45:41.549Z,5.43
2018-04-29T18:48:10.934Z,4.90
2018-04-29T18:50:41.834Z,4.43
2018-04-29T18:53:10.466Z,4.57
2018-04-29T18:55:39.468Z,4.87
2018-04-29T18:58:09.100Z,4.93
2018-04-29T19:00:37.555Z,4.60
2018-04-29T19:03:06.039Z,4.60
2018-04-29T19:05:59.251Z,4.67
2018-04-29T19:08:27.523Z,4.97
2018-04-29T19:10:56.702Z,5.47
2018-04-29T19:13:26.026Z,5.47
2018-04-29T19:15:55.104Z,5.63
2018-04-29T19:18:23.349Z,5.10
2018-04-29T19:20:51.609Z,5.40
2018-04-29T19:23:19.864Z,4.75
2018-04-29T19:25:48.260Z,4.73
2018-04-29T19:28:16.550Z,4.97
2018-04-29T19:30:44.873Z,5.13
2018-04-29T19:33:13.165Z,5.77
2018-04-29T19:35:49.494Z,4.70
2018-04-29T19:38:24.609Z,5.33
2018-04-29T19:40:54.014Z,4.80
2018-04-29T19:43:24.551Z,4.70
2018-04-29T19:45:54.219Z,4.73
2018-04-29T19:48:25.322Z,4.30
2018-04-29T19:50:53.632Z,4.27
2018-04-29T19:53:21.925Z,4.80
2018-04-29T19:55:52.905Z,4.13
2018-04-29T19:58:23.353Z,4.70
2018-04-29T20:00:53.779Z,4.37
2018-04-29T20:03:23.938Z,4.37
2018-04-29T20:05:54.159Z,5.00
2018-04-29T20:08:24.043Z,5.30
2018-04-29T20:10:53.221Z,4.67
2018-04-29T20:13:22.159Z,5.23
2018-04-29T20:15:51.196Z,6.30
2018-04-29T20:18:19.487Z,5.10
2018-04-29T20:20:49.564Z,5.97
2018-04-29T20:23:20.467Z,5.63
2018-04-29T20:25:48.965Z,4.60
2018-04-29T20:28:18.124Z,4.90
2018-04-29T20:30:47.157Z,5.07
2018-04-29T20:33:15.434Z,5.10
2018-04-29T20:35:44.468Z,4.93
2018-04-29T20:38:12.843Z,5.30
2018-04-29T20:40:41.247Z,4.63
2018-04-29T20:43:10.371Z,4.83
2018-04-29T20:45:38.958Z,4.70
2018-04-29T20:48:07.975Z,4.90
2018-04-29T20:50:36.929Z,4.67
2018-04-29T20:53:06.386Z,4.57
2018-04-29T20:55:34.642Z,5.40
2018-04-29T20:58:04.408Z,5.37
2018-04-29T21:00:32.769Z,5.30
2018-04-29T21:03:01.081Z,5.40
2018-04-29T21:05:30.237Z,4.83
2018-04-29T21:07:59.315Z,4.73
2018-04-29T21:10:27.616Z,5.03
2018-04-29T21:12:55.861Z,4.60
2018-04-29T21:15:24.954Z,5.03
2018-04-29T21:17:53.503Z,5.30
2018-04-29T21:20:21.834Z,5.67
2018-04-29T21:22:50.185Z,5.70
2018-04-29T21:25:18.441Z,5.10
2018-04-29T21:27:47.469Z,5.43
2018-04-29T21:30:15.773Z,4.90
2018-04-29T21:32:44.029Z,6.00
2018-04-29T21:35:13.174Z,5.37
2018-04-29T21:37:41.476Z,5.10
2018-04-29T21:40:09.817Z,5.70
2018-04-29T21:42:38.943Z,5.23
2018-04-29T21:45:07.250Z,5.73
2018-04-29T21:47:35.522Z,6.40
2018-04-29T21:50:04.633Z,5.60
2018-04-29T21:52:33.964Z,6.13
2018-04-29T21:55:02.332Z,6.63
2018-04-29T21:57:31.438Z,6.67
2018-04-29T22:00:00.470Z,6.30
2018-04-29T22:02:28.955Z,6.53
2018-04-29T22:04:58.012Z,6.77
2018-04-29T22:07:26.458Z,6.33
2018-04-29T22:09:54.703Z,6.37
2018-04-29T22:12:22.983Z,6.30
2018-04-29T22:14:51.372Z,7.50
2018-04-29T22:17:19.799Z,10.40
2018-04-29T22:19:48.187Z,19.10
2018-04-29T22:22:17.323Z,21.53
2018-04-29T22:24:46.340Z,24.77
2018-04-29T22:27:14.621Z,28.30
2018-04-29T22:29:42.879Z,29.70
2018-04-29T22:32:11.962Z,33.63
2018-04-29T22:34:40.243Z,37.63
2018-04-29T22:37:09.919Z,40.33
2018-04-29T22:39:38.120Z,41.63
2018-04-29T22:42:06.376Z,43.90
2018-04-29T22:44:34.665Z,44.90
2018-04-29T22:47:02.980Z,51.13
2018-04-29T22:49:31.244Z,56.13
2018-04-29T22:51:59.534Z,61.37
2018-04-29T22:54:27.861Z,59.90
2018-04-29T22:56:56.875Z,63.30
2018-04-29T22:59:25.164Z,64.53
2018-04-29T23:01:53.427Z,65.40
2018-04-29T23:04:22.462Z,68.53
2018-04-29T23:06:50.781Z,68.53
2018-04-29T23:09:19.051Z,65.83
2018-04-29T23:11:47.340Z,68.97
2018-04-29T23:14:15.725Z,64.87
2018-04-29T23:16:44.001Z,67.77
2018-04-29T23:19:13.015Z,64.03
2018-04-29T23:21:42.289Z,57.63
2018-04-29T23:24:10.545Z,60.07
2018-04-29T23:26:38.815Z,57.63
2018-04-29T23:29:07.084Z,58.03
2018-04-29T23:31:35.344Z,51.97
2018-04-29T23:34:03.607Z,58.07
2018-04-29T23:36:31.914Z,57.77
2018-04-29T23:39:00.195Z,53.07
2018-04-29T23:41:28.439Z,51.97
2018-04-29T23:43:57.915Z,50.87
2018-04-29T23:46:26.187Z,60.77
2018-04-29T23:48:54.451Z,52.83
2018-04-29T23:51:22.731Z,54.10
2018-04-29T23:53:51.747Z,49.57
2018-04-29T23:56:20.007Z,49.30
2018-04-29T23:58:49.065Z,50.80
